createdAt,value
2023-03-12T10:54:45.138Z,4.60
2023-03-12T10:57:12.683Z,4.60
2023-03-12T10:59:44.239Z,4.60
2023-03-12T11:02:31.376Z,4.60
2023-03-12T11:04:58.824Z,4.60
2023-03-12T11:07:28.610Z,4.70
2023-03-12T11:10:15.350Z,4.70
2023-03-12T11:12:52.331Z,4.80
2023-03-12T11:15:23.694Z,4.80
2023-03-12T11:17:50.779Z,4.80
2023-03-12T11:20:18.769Z,4.80
2023-03-12T13:00:56.636Z,4.70
2023-03-12T14:10:48.208Z,4.30
2023-03-12T14:13:38.214Z,4.30
2023-03-12T14:16:04.993Z,4.30
2023-03-12T14:18:33.881Z,4.40
2023-03-12T14:21:07.784Z,4.30
2023-03-12T14:23:37.314Z,4.40
2023-03-12T14:26:04.742Z,4.30
2023-03-12T14:28:32.763Z,4.30
2023-03-12T14:31:01.461Z,4.30
2023-03-12T14:33:32.513Z,4.30
2023-03-12T14:36:19.771Z,4.30
2023-03-12T14:38:48.773Z,4.30
2023-03-12T14:41:31.394Z,4.30
2023-03-12T14:44:25.708Z,4.20
2023-03-12T14:47:15.451Z,4.20
2023-03-12T14:49:43.837Z,4.20
2023-03-12T14:52:11.628Z,4.20
2023-03-12T14:54:39.880Z,4.20
2023-03-12T14:57:13.525Z,4.10
2023-03-12T14:59:40.414Z,4.10
2023-03-12T15:02:14.657Z,4.10
2023-03-12T15:04:41.742Z,4.00
2023-03-12T15:07:12.648Z,4.00
2023-03-12T15:09:44.176Z,3.90
2023-03-12T15:12:21.975Z,4.00
2023-03-12T15:14:50.317Z,4.00
2023-03-12T15:17:18.948Z,3.90
2023-03-12T15:19:46.333Z,3.90
2023-03-12T15:22:15.697Z,3.90
2023-03-12T15:24:43.473Z,3.80
2023-03-12T15:27:25.942Z,3.80
2023-03-12T15:29:54.313Z,3.80
2023-03-12T15:32:22.619Z,3.90
2023-03-12T15:34:49.895Z,3.80
2023-03-12T15:37:38.115Z,3.80
2023-03-12T15:40:19.825Z,3.80
2023-03-12T15:42:47.322Z,3.80
2023-03-12T15:45:25.121Z,3.80
2023-03-12T15:47:53.637Z,3.80
2023-03-12T15:50:22.627Z,3.80
2023-03-12T15:53:09.965Z,3.80
2023-03-12T15:55:36.908Z,3.80
2023-03-12T15:58:23.615Z,3.80
2023-03-12T16:00:53.676Z,3.70
2023-03-12T16:03:21.549Z,3.80
2023-03-12T16:05:51.449Z,3.80
2023-03-12T16:08:22.672Z,3.80
2023-03-12T16:10:50.101Z,3.80
2023-03-12T16:13:20.147Z,3.80
2023-03-12T16:15:47.987Z,3.80
2023-03-12T16:18:16.235Z,3.80
2023-03-12T16:20:43.757Z,3.80
2023-03-12T16:23:14.314Z,3.80
2023-03-12T16:25:46.367Z,3.80
2023-03-12T16:28:14.563Z,3.80
2023-03-12T16:30:41.703Z,3.80
2023-03-12T16:33:09.488Z,3.80
2023-03-12T16:35:36.784Z,3.80
2023-03-12T16:38:09.477Z,3.80
2023-03-12T16:40:38.128Z,3.80
2023-03-12T16:43:06.952Z,3.80
2023-03-12T16:45:35.214Z,3.70
2023-03-12T16:48:03.920Z,3.70
2023-03-12T16:50:30.808Z,3.70
2023-03-12T16:52:58.008Z,3.80
2023-03-12T16:55:31.816Z,3.70
2023-03-12T16:58:00.521Z,3.70
2023-03-12T17:00:31.580Z,3.70
2023-03-12T17:02:59.096Z,3.70
2023-03-12T17:05:29.876Z,3.70
2023-03-12T17:07:57.314Z,3.70
2023-03-12T17:10:25.081Z,3.80
2023-03-12T17:12:52.974Z,3.70
2023-03-12T17:15:25.952Z,3.80
2023-03-12T17:17:53.140Z,3.80
2023-03-12T17:20:20.462Z,3.80
2023-03-12T17:22:48.150Z,3.80
2023-03-12T17:25:23.142Z,3.70
2023-03-12T17:27:51.183Z,3.70
2023-03-12T17:30:18.775Z,3.80
2023-03-12T17:32:45.716Z,3.80
2023-03-12T17:35:12.898Z,3.80
2023-03-12T17:37:39.787Z,3.90
2023-03-12T17:40:10.029Z,3.90
2023-03-12T17:42:37.858Z,3.90
2023-03-12T17:45:06.198Z,3.90
2023-03-12T17:47:33.046Z,3.90
2023-03-12T17:50:01.023Z,3.90
2023-03-12T17:52:30.307Z,3.90
2023-03-12T17:54:57.238Z,4.00
2023-03-12T17:57:25.212Z,4.00
2023-03-12T17:59:53.146Z,4.00
2023-03-12T18:02:22.899Z,4.00
2023-03-12T18:04:51.156Z,4.10
2023-03-12T18:07:18.226Z,4.10
2023-03-12T18:09:45.500Z,4.10
2023-03-12T18:12:12.512Z,4.10
2023-03-12T18:14:39.568Z,4.20
2023-03-12T18:17:07.657Z,4.20
2023-03-12T18:19:35.610Z,4.30
2023-03-12T18:22:02.747Z,4.30
2023-03-12T18:24:30.161Z,4.30
2023-03-12T18:27:00.294Z,4.30
2023-03-12T18:29:27.201Z,4.40
2023-03-12T18:31:54.117Z,4.40
2023-03-12T18:34:20.984Z,4.40
2023-03-12T18:36:48.229Z,4.40
2023-03-12T18:39:15.293Z,4.50
2023-03-12T18:41:42.321Z,4.50
2023-03-12T18:44:09.244Z,4.60
2023-03-12T18:46:36.210Z,4.60
2023-03-12T18:49:04.118Z,4.70
2023-03-12T18:51:31.097Z,4.70
2023-03-12T18:53:57.905Z,4.80
2023-03-12T18:56:24.876Z,4.80
2023-03-12T18:58:52.718Z,4.90
2023-03-12T19:01:19.693Z,4.90
2023-03-12T19:03:46.691Z,5.00
2023-03-12T19:06:14.722Z,5.00
2023-03-12T19:08:42.052Z,5.10
2023-03-12T19:11:10.296Z,5.10
2023-03-12T19:13:37.424Z,5.20
2023-03-12T19:16:05.976Z,5.20
2023-03-12T19:18:33.013Z,5.20
2023-03-12T19:21:05.197Z,5.30
2023-03-12T19:23:32.058Z,5.30
2023-03-12T19:25:58.807Z,5.40
2023-03-12T19:28:25.897Z,5.40
2023-03-12T19:30:58.578Z,5.40
2023-03-12T19:33:25.427Z,5.50
2023-03-12T19:35:52.293Z,5.50
2023-03-12T19:38:22.356Z,5.60
2023-03-12T19:40:55.488Z,5.60
2023-03-12T19:43:22.775Z,5.70
2023-03-12T19:45:56.590Z,5.70
2023-03-12T19:48:25.325Z,5.70
2023-03-12T19:50:53.631Z,5.80
2023-03-12T19:53:21.186Z,5.80
2023-03-12T19:55:51.874Z,5.80
2023-03-12T19:58:28.139Z,5.90
2023-03-12T20:00:57.660Z,5.90
2023-03-12T20:03:24.683Z,6.00
2023-03-12T20:05:51.826Z,6.00
2023-03-12T20:08:21.490Z,6.10
2023-03-12T20:10:53.021Z,6.10
2023-03-12T20:13:20.426Z,6.10
2023-03-12T20:16:13.951Z,6.20
2023-03-12T20:18:43.304Z,6.20
2023-03-12T20:21:12.222Z,6.30
2023-03-12T20:23:39.094Z,6.30
2023-03-12T20:26:06.056Z,6.30
2023-03-12T20:28:32.887Z,6.30
2023-03-12T20:31:15.595Z,6.40
2023-03-12T20:33:51.771Z,6.40
2023-03-12T20:36:19.008Z,6.40
2023-03-12T20:38:48.062Z,6.40
2023-03-12T20:41:17.767Z,6.50
2023-03-12T20:43:45.262Z,6.50
2023-03-12T20:46:13.512Z,6.50
2023-03-12T20:48:40.831Z,6.60
2023-03-12T20:51:07.655Z,6.60
2023-03-12T20:53:34.478Z,6.60
2023-03-12T20:56:01.458Z,6.60
2023-03-12T20:58:28.388Z,6.60
2023-03-12T21:00:55.370Z,6.70
2023-03-12T21:03:24.468Z,6.60
2023-03-12T21:06:03.275Z,6.70
2023-03-12T21:08:30.243Z,6.70
2023-03-12T21:10:58.256Z,6.70
2023-03-12T21:13:26.424Z,6.70
2023-03-12T21:15:53.309Z,6.80
2023-03-12T21:18:20.146Z,6.80
2023-03-12T21:20:47.250Z,6.80
2023-03-12T21:23:14.301Z,6.80
2023-03-12T21:25:41.769Z,6.90
2023-03-12T21:28:09.695Z,6.80
2023-03-12T21:30:36.441Z,6.80
2023-03-12T21:33:03.509Z,6.90
2023-03-12T21:35:30.473Z,6.90
2023-03-12T21:37:57.304Z,6.90
2023-03-12T21:40:24.243Z,6.90
2023-03-12T21:42:51.219Z,6.90
2023-03-12T21:45:18.066Z,6.90
2023-03-12T21:47:45.494Z,6.90
2023-03-12T21:50:15.538Z,6.90
2023-03-12T21:52:54.913Z,7.00
2023-03-12T21:55:27.138Z,6.90
2023-03-12T21:57:53.935Z,7.00
2023-03-12T22:00:20.810Z,7.00
2023-03-12T22:02:47.872Z,7.00
2023-03-12T22:05:14.770Z,7.00
2023-03-12T22:07:41.812Z,6.90
2023-03-12T22:10:11.874Z,6.90
2023-03-12T22:12:39.605Z,7.00
2023-03-12T22:15:07.533Z,6.90
2023-03-12T22:17:34.508Z,7.00
2023-03-12T22:20:10.931Z,7.00
2023-03-12T22:22:37.874Z,7.00
2023-03-12T22:25:04.976Z,7.00
2023-03-12T22:27:31.800Z,7.00
2023-03-12T22:29:59.006Z,7.00
2023-03-12T22:32:29.070Z,7.00
2023-03-12T22:34:56.945Z,7.00
2023-03-12T22:37:23.801Z,7.00
2023-03-12T22:39:51.283Z,7.00
2023-03-12T22:42:18.092Z,7.00
2023-03-12T22:44:44.891Z,7.00
2023-03-12T22:47:11.641Z,7.00
2023-03-12T22:49:38.609Z,7.00
2023-03-12T22:52:08.433Z,7.00
2023-03-12T22:54:37.478Z,6.90
2023-03-12T22:57:04.234Z,6.90
2023-03-12T22:59:31.016Z,6.90
